sensor_id;sensor_type;location;lat;lon;timestamp;P1;durP1;ratioP1;P2;durP2;ratioP2
12972;SDS011;6551;51.056;9.466;2022-10-16T00:00:43;5.63;;;3.93;;
12972;SDS011;6551;51.056;9.466;2022-10-16T00:03:09;4.37;;;3.67;;
12972;SDS011;6551;51.056;9.466;2022-10-16T00:05:42;6.03;;;4.10;;
12972;SDS011;6551;51.056;9.466;2022-10-16T00:08:10;4.33;;;3.93;;
12972;SDS011;6551;51.056;9.466;2022-10-16T00:10:37;5.87;;;3.90;;
12972;SDS011;6551;51.056;9.466;2022-10-16T00:13:03;3.97;;;3.60;;
12972;SDS011;6551;51.056;9.466;2022-10-16T00:15:29;4.40;;;4.00;;
12972;SDS011;6551;51.056;9.466;2022-10-16T00:17:58;4.23;;;3.80;;
12972;SDS011;6551;51.056;9.466;2022-10-16T00:20:23;4.70;;;4.20;;
12972;SDS011;6551;51.056;9.466;2022-10-16T00:22:49;4.60;;;4.20;;
12972;SDS011;6551;51.056;9.466;2022-10-16T00:25:15;7.20;;;4.70;;
12972;SDS011;6551;51.056;9.466;2022-10-16T00:27:40;5.37;;;4.87;;
12972;SDS011;6551;51.056;9.466;2022-10-16T00:30:06;5.63;;;5.07;;
12972;SDS011;6551;51.056;9.466;2022-10-16T00:32:33;6.70;;;5.23;;
12972;SDS011;6551;51.056;9.466;2022-10-16T00:34:59;6.90;;;5.00;;
12972;SDS011;6551;51.056;9.466;2022-10-16T00:37:24;5.30;;;4.80;;
12972;SDS011;6551;51.056;9.466;2022-10-16T00:39:50;7.13;;;5.17;;
12972;SDS011;6551;51.056;9.466;2022-10-16T00:42:16;5.30;;;4.80;;
12972;SDS011;6551;51.056;9.466;2022-10-16T00:49:59;7.43;;;4.83;;
12972;SDS011;6551;51.056;9.466;2022-10-16T00:52:34;7.03;;;4.33;;
12972;SDS011;6551;51.056;9.466;2022-10-16T00:55:02;5.57;;;4.27;;
12972;SDS011;6551;51.056;9.466;2022-10-16T00:57:29;4.13;;;3.83;;
12972;SDS011;6551;51.056;9.466;2022-10-16T00:59:55;5.87;;;4.23;;
12972;SDS011;6551;51.056;9.466;2022-10-16T01:02:22;5.17;;;4.13;;
12972;SDS011;6551;51.056;9.466;2022-10-16T01:04:49;6.07;;;4.53;;
12972;SDS011;6551;51.056;9.466;2022-10-16T01:07:30;4.47;;;4.03;;
12972;SDS011;6551;51.056;9.466;2022-10-16T01:10:07;4.73;;;3.90;;
12972;SDS011;6551;51.056;9.466;2022-10-16T01:12:45;7.13;;;3.77;;
12972;SDS011;6551;51.056;9.466;2022-10-16T01:18:49;4.97;;;4.20;;
12972;SDS011;6551;51.056;9.466;2022-10-16T01:21:22;4.63;;;4.23;;
12972;SDS011;6551;51.056;9.466;2022-10-16T01:27:01;4.83;;;4.40;;
12972;SDS011;6551;51.056;9.466;2022-10-16T01:38:17;5.70;;;5.17;;
12972;SDS011;6551;51.056;9.466;2022-10-16T01:40:52;7.33;;;4.83;;
12972;SDS011;6551;51.056;9.466;2022-10-16T01:43:28;5.13;;;4.53;;
12972;SDS011;6551;51.056;9.466;2022-10-16T01:46:01;5.47;;;4.90;;
12972;SDS011;6551;51.056;9.466;2022-10-16T01:48:27;5.33;;;4.90;;
12972;SDS011;6551;51.056;9.466;2022-10-16T01:51:01;6.27;;;4.90;;
12972;SDS011;6551;51.056;9.466;2022-10-16T01:53:34;5.27;;;4.87;;
12972;SDS011;6551;51.056;9.466;2022-10-16T01:56:02;6.40;;;4.77;;
12972;SDS011;6551;51.056;9.466;2022-10-16T01:58:35;5.60;;;5.13;;
12972;SDS011;6551;51.056;9.466;2022-10-16T02:01:07;5.33;;;4.83;;
12972;SDS011;6551;51.056;9.466;2022-10-16T02:03:36;7.03;;;3.97;;
12972;SDS011;6551;51.056;9.466;2022-10-16T02:06:06;4.87;;;4.13;;
12972;SDS011;6551;51.056;9.466;2022-10-16T02:08:32;4.80;;;4.33;;
12972;SDS011;6551;51.056;9.466;2022-10-16T02:11:00;5.60;;;4.20;;
12972;SDS011;6551;51.056;9.466;2022-10-16T02:13:30;11.33;;;4.70;;
12972;SDS011;6551;51.056;9.466;2022-10-16T02:16:18;4.27;;;3.97;;
12972;SDS011;6551;51.056;9.466;2022-10-16T02:18:43;7.80;;;4.27;;
12972;SDS011;6551;51.056;9.466;2022-10-16T02:21:23;4.47;;;4.07;;
12972;SDS011;6551;51.056;9.466;2022-10-16T02:23:58;4.57;;;4.17;;
12972;SDS011;6551;51.056;9.466;2022-10-16T02:26:57;4.20;;;3.87;;
12972;SDS011;6551;51.056;9.466;2022-10-16T02:29:42;3.87;;;3.57;;
12972;SDS011;6551;51.056;9.466;2022-10-16T02:32:19;6.73;;;3.63;;
12972;SDS011;6551;51.056;9.466;2022-10-16T02:34:49;7.73;;;3.60;;
12972;SDS011;6551;51.056;9.466;2022-10-16T02:37:16;4.90;;;3.30;;
12972;SDS011;6551;51.056;9.466;2022-10-16T02:39:43;3.70;;;3.10;;
12972;SDS011;6551;51.056;9.466;2022-10-16T02:42:09;5.60;;;3.37;;
12972;SDS011;6551;51.056;9.466;2022-10-16T02:44:40;3.33;;;3.10;;
12972;SDS011;6551;51.056;9.466;2022-10-16T02:47:06;4.57;;;3.20;;
12972;SDS011;6551;51.056;9.466;2022-10-16T02:49:32;4.63;;;3.03;;
12972;SDS011;6551;51.056;9.466;2022-10-16T02:51:57;3.17;;;2.97;;
12972;SDS011;6551;51.056;9.466;2022-10-16T02:54:23;4.97;;;3.50;;
12972;SDS011;6551;51.056;9.466;2022-10-16T02:56:49;4.57;;;3.00;;
12972;SDS011;6551;51.056;9.466;2022-10-16T02:59:15;3.23;;;2.93;;
12972;SDS011;6551;51.056;9.466;2022-10-16T03:01:40;3.20;;;2.70;;
12972;SDS011;6551;51.056;9.466;2022-10-16T03:04:06;5.03;;;3.00;;
12972;SDS011;6551;51.056;9.466;2022-10-16T03:06:32;5.47;;;2.90;;
12972;SDS011;6551;51.056;9.466;2022-10-16T03:08:58;3.60;;;3.30;;
12972;SDS011;6551;51.056;9.466;2022-10-16T03:11:23;5.53;;;3.20;;
12972;SDS011;6551;51.056;9.466;2022-10-16T03:13:49;15.57;;;8.77;;
12972;SDS011;6551;51.056;9.466;2022-10-16T03:16:15;14.70;;;11.10;;
12972;SDS011;6551;51.056;9.466;2022-10-16T03:18:40;4.50;;;4.00;;
12972;SDS011;6551;51.056;9.466;2022-10-16T03:21:06;4.97;;;3.73;;
12972;SDS011;6551;51.056;9.466;2022-10-16T03:23:32;4.20;;;3.80;;
12972;SDS011;6551;51.056;9.466;2022-10-16T03:25:58;9.00;;;7.60;;
12972;SDS011;6551;51.056;9.466;2022-10-16T03:28:24;4.27;;;3.30;;
12972;SDS011;6551;51.056;9.466;2022-10-16T03:30:49;3.80;;;3.40;;
12972;SDS011;6551;51.056;9.466;2022-10-16T03:33:15;3.87;;;3.57;;
12972;SDS011;6551;51.056;9.466;2022-10-16T03:35:41;7.13;;;6.27;;
12972;SDS011;6551;51.056;9.466;2022-10-16T03:38:07;4.53;;;4.07;;
12972;SDS011;6551;51.056;9.466;2022-10-16T03:40:32;7.73;;;4.07;;
12972;SDS011;6551;51.056;9.466;2022-10-16T03:42:58;6.30;;;3.90;;
12972;SDS011;6551;51.056;9.466;2022-10-16T03:45:24;6.17;;;3.80;;
12972;SDS011;6551;51.056;9.466;2022-10-16T03:47:50;4.60;;;4.20;;
12972;SDS011;6551;51.056;9.466;2022-10-16T03:50:16;6.03;;;4.50;;
12972;SDS011;6551;51.056;9.466;2022-10-16T03:52:41;11.23;;;8.67;;
12972;SDS011;6551;51.056;9.466;2022-10-16T03:55:07;8.93;;;7.90;;
12972;SDS011;6551;51.056;9.466;2022-10-16T03:57:33;23.60;;;17.07;;
12972;SDS011;6551;51.056;9.466;2022-10-16T03:59:58;12.40;;;9.10;;
12972;SDS011;6551;51.056;9.466;2022-10-16T04:02:24;16.37;;;13.27;;
12972;SDS011;6551;51.056;9.466;2022-10-16T04:04:50;4.67;;;4.20;;
12972;SDS011;6551;51.056;9.466;2022-10-16T04:07:15;5.93;;;5.33;;
12972;SDS011;6551;51.056;9.466;2022-10-16T04:09:41;6.53;;;5.93;;
12972;SDS011;6551;51.056;9.466;2022-10-16T04:12:07;7.13;;;4.77;;
12972;SDS011;6551;51.056;9.466;2022-10-16T04:14:32;13.70;;;11.17;;
12972;SDS011;6551;51.056;9.466;2022-10-16T04:16:59;6.37;;;3.60;;
12972;SDS011;6551;51.056;9.466;2022-10-16T04:19:24;6.00;;;4.87;;
12972;SDS011;6551;51.056;9.466;2022-10-16T04:21:50;4.43;;;4.03;;
12972;SDS011;6551;51.056;9.466;2022-10-16T04:24:15;6.73;;;4.83;;
12972;SDS011;6551;51.056;9.466;2022-10-16T04:26:41;5.00;;;3.80;;
12972;SDS011;6551;51.056;9.466;2022-10-16T04:29:07;5.77;;;4.13;;
12972;SDS011;6551;51.056;9.466;2022-10-16T04:31:33;10.97;;;9.43;;
12972;SDS011;6551;51.056;9.466;2022-10-16T04:33:59;7.90;;;6.80;;
12972;SDS011;6551;51.056;9.466;2022-10-16T04:36:24;14.97;;;9.33;;
12972;SDS011;6551;51.056;9.466;2022-10-16T04:38:50;6.17;;;5.50;;
12972;SDS011;6551;51.056;9.466;2022-10-16T04:41:15;7.50;;;5.80;;
12972;SDS011;6551;51.056;9.466;2022-10-16T04:43:41;7.93;;;5.93;;
12972;SDS011;6551;51.056;9.466;2022-10-16T04:46:07;8.83;;;6.90;;
12972;SDS011;6551;51.056;9.466;2022-10-16T04:48:32;7.10;;;5.93;;
12972;SDS011;6551;51.056;9.466;2022-10-16T04:50:58;7.00;;;6.40;;
12972;SDS011;6551;51.056;9.466;2022-10-16T04:53:24;6.70;;;6.10;;
12972;SDS011;6551;51.056;9.466;2022-10-16T04:55:50;7.53;;;6.67;;
12972;SDS011;6551;51.056;9.466;2022-10-16T04:58:16;6.80;;;6.10;;
12972;SDS011;6551;51.056;9.466;2022-10-16T05:00:42;7.20;;;6.47;;
12972;SDS011;6551;51.056;9.466;2022-10-16T05:03:11;6.50;;;5.90;;
12972;SDS011;6551;51.056;9.466;2022-10-16T05:05:41;7.23;;;6.20;;
12972;SDS011;6551;51.056;9.466;2022-10-16T05:08:08;6.50;;;5.20;;
12972;SDS011;6551;51.056;9.466;2022-10-16T05:10:34;4.87;;;4.13;;
12972;SDS011;6551;51.056;9.466;2022-10-16T05:13:00;4.30;;;3.70;;
12972;SDS011;6551;51.056;9.466;2022-10-16T05:15:26;7.53;;;4.33;;
12972;SDS011;6551;51.056;9.466;2022-10-16T05:17:52;5.10;;;3.87;;
12972;SDS011;6551;51.056;9.466;2022-10-16T05:20:19;7.23;;;4.47;;
12972;SDS011;6551;51.056;9.466;2022-10-16T05:22:45;4.53;;;3.77;;
12972;SDS011;6551;51.056;9.466;2022-10-16T05:25:11;4.50;;;3.80;;
12972;SDS011;6551;51.056;9.466;2022-10-16T05:27:36;4.20;;;3.33;;
12972;SDS011;6551;51.056;9.466;2022-10-16T05:30:02;4.03;;;3.50;;
12972;SDS011;6551;51.056;9.466;2022-10-16T05:32:28;5.33;;;3.53;;
12972;SDS011;6551;51.056;9.466;2022-10-16T05:34:54;3.83;;;3.30;;
12972;SDS011;6551;51.056;9.466;2022-10-16T05:37:19;4.70;;;3.40;;
12972;SDS011;6551;51.056;9.466;2022-10-16T05:39:45;4.83;;;3.13;;
12972;SDS011;6551;51.056;9.466;2022-10-16T05:42:11;4.07;;;2.70;;
12972;SDS011;6551;51.056;9.466;2022-10-16T05:44:36;3.93;;;2.20;;
12972;SDS011;6551;51.056;9.466;2022-10-16T05:47:02;3.27;;;2.97;;
12972;SDS011;6551;51.056;9.466;2022-10-16T05:49:28;3.60;;;3.30;;
12972;SDS011;6551;51.056;9.466;2022-10-16T05:51:53;3.20;;;3.00;;
12972;SDS011;6551;51.056;9.466;2022-10-16T05:54:19;3.77;;;3.20;;
12972;SDS011;6551;51.056;9.466;2022-10-16T05:56:44;2.80;;;2.60;;
12972;SDS011;6551;51.056;9.466;2022-10-16T05:59:10;4.07;;;2.63;;
12972;SDS011;6551;51.056;9.466;2022-10-16T06:01:36;2.90;;;2.30;;
12972;SDS011;6551;51.056;9.466;2022-10-16T06:04:01;2.60;;;1.77;;
12972;SDS011;6551;51.056;9.466;2022-10-16T06:06:28;2.57;;;1.37;;
12972;SDS011;6551;51.056;9.466;2022-10-16T06:08:55;2.13;;;1.40;;
12972;SDS011;6551;51.056;9.466;2022-10-16T06:11:25;1.67;;;1.57;;
12972;SDS011;6551;51.056;9.466;2022-10-16T06:13:55;4.07;;;1.90;;
12972;SDS011;6551;51.056;9.466;2022-10-16T06:16:23;12.10;;;7.83;;
12972;SDS011;6551;51.056;9.466;2022-10-16T06:18:51;4.00;;;3.20;;
12972;SDS011;6551;51.056;9.466;2022-10-16T06:21:18;1.40;;;0.93;;
12972;SDS011;6551;51.056;9.466;2022-10-16T06:23:47;1.73;;;1.03;;
12972;SDS011;6551;51.056;9.466;2022-10-16T06:26:17;2.40;;;1.63;;
12972;SDS011;6551;51.056;9.466;2022-10-16T06:28:46;3.27;;;2.73;;
12972;SDS011;6551;51.056;9.466;2022-10-16T06:31:12;3.87;;;2.80;;
12972;SDS011;6551;51.056;9.466;2022-10-16T06:33:39;10.27;;;9.27;;
12972;SDS011;6551;51.056;9.466;2022-10-16T06:36:06;18.30;;;16.40;;
12972;SDS011;6551;51.056;9.466;2022-10-16T06:38:42;18.27;;;16.03;;
12972;SDS011;6551;51.056;9.466;2022-10-16T06:41:09;7.33;;;6.53;;
12972;SDS011;6551;51.056;9.466;2022-10-16T06:43:38;15.57;;;12.37;;
12972;SDS011;6551;51.056;9.466;2022-10-16T06:46:05;9.33;;;6.97;;
12972;SDS011;6551;51.056;9.466;2022-10-16T06:48:34;9.17;;;8.33;;
12972;SDS011;6551;51.056;9.466;2022-10-16T06:51:02;3.27;;;2.97;;
12972;SDS011;6551;51.056;9.466;2022-10-16T06:53:30;1.67;;;1.20;;
12972;SDS011;6551;51.056;9.466;2022-10-16T06:56:05;5.30;;;1.47;;
12972;SDS011;6551;51.056;9.466;2022-10-16T06:58:39;1.93;;;1.57;;
12972;SDS011;6551;51.056;9.466;2022-10-16T07:01:07;6.20;;;4.93;;
12972;SDS011;6551;51.056;9.466;2022-10-16T07:03:33;2.57;;;1.13;;
12972;SDS011;6551;51.056;9.466;2022-10-16T07:06:02;4.37;;;3.13;;
12972;SDS011;6551;51.056;9.466;2022-10-16T07:08:33;5.17;;;1.60;;
12972;SDS011;6551;51.056;9.466;2022-10-16T07:11:01;1.00;;;0.60;;
12972;SDS011;6551;51.056;9.466;2022-10-16T07:13:29;2.13;;;0.70;;
12972;SDS011;6551;51.056;9.466;2022-10-16T07:15:57;1.97;;;0.97;;
12972;SDS011;6551;51.056;9.466;2022-10-16T07:18:28;2.90;;;1.20;;
12972;SDS011;6551;51.056;9.466;2022-10-16T07:21:02;3.60;;;1.07;;
12972;SDS011;6551;51.056;9.466;2022-10-16T07:23:32;1.47;;;0.90;;
12972;SDS011;6551;51.056;9.466;2022-10-16T07:25:59;1.00;;;0.90;;
12972;SDS011;6551;51.056;9.466;2022-10-16T07:28:25;2.23;;;0.90;;
12972;SDS011;6551;51.056;9.466;2022-10-16T07:30:51;1.20;;;0.80;;
12972;SDS011;6551;51.056;9.466;2022-10-16T07:33:16;1.30;;;1.07;;
12972;SDS011;6551;51.056;9.466;2022-10-16T07:35:49;1.07;;;0.90;;
12972;SDS011;6551;51.056;9.466;2022-10-16T07:38:16;0.80;;;0.70;;
12972;SDS011;6551;51.056;9.466;2022-10-16T07:40:42;3.33;;;1.00;;
12972;SDS011;6551;51.056;9.466;2022-10-16T07:43:08;3.80;;;1.00;;
12972;SDS011;6551;51.056;9.466;2022-10-16T07:45:34;2.07;;;1.30;;
12972;SDS011;6551;51.056;9.466;2022-10-16T07:48:00;1.40;;;1.13;;
12972;SDS011;6551;51.056;9.466;2022-10-16T07:50:26;1.33;;;0.80;;
12972;SDS011;6551;51.056;9.466;2022-10-16T07:52:51;0.80;;;0.80;;
12972;SDS011;6551;51.056;9.466;2022-10-16T07:55:17;2.83;;;1.10;;
12972;SDS011;6551;51.056;9.466;2022-10-16T07:57:43;1.20;;;0.90;;
12972;SDS011;6551;51.056;9.466;2022-10-16T08:00:09;1.27;;;1.13;;
12972;SDS011;6551;51.056;9.466;2022-10-16T08:02:39;2.70;;;0.90;;
12972;SDS011;6551;51.056;9.466;2022-10-16T08:05:06;3.10;;;1.17;;
12972;SDS011;6551;51.056;9.466;2022-10-16T08:07:32;3.70;;;2.10;;
12972;SDS011;6551;51.056;9.466;2022-10-16T08:09:58;1.70;;;1.00;;
12972;SDS011;6551;51.056;9.466;2022-10-16T08:12:24;4.87;;;3.43;;
12972;SDS011;6551;51.056;9.466;2022-10-16T08:14:52;3.93;;;2.53;;
12972;SDS011;6551;51.056;9.466;2022-10-16T08:17:18;5.73;;;5.13;;
12972;SDS011;6551;51.056;9.466;2022-10-16T08:19:47;5.00;;;4.00;;
12972;SDS011;6551;51.056;9.466;2022-10-16T08:22:13;6.30;;;5.70;;
12972;SDS011;6551;51.056;9.466;2022-10-16T08:24:39;2.83;;;2.37;;
12972;SDS011;6551;51.056;9.466;2022-10-16T08:27:05;5.60;;;4.77;;
12972;SDS011;6551;51.056;9.466;2022-10-16T08:29:32;7.57;;;5.10;;
12972;SDS011;6551;51.056;9.466;2022-10-16T08:31:57;5.03;;;3.27;;
12972;SDS011;6551;51.056;9.466;2022-10-16T08:34:23;5.47;;;3.37;;
12972;SDS011;6551;51.056;9.466;2022-10-16T08:36:49;4.37;;;3.93;;
12972;SDS011;6551;51.056;9.466;2022-10-16T08:39:17;4.57;;;2.70;;
12972;SDS011;6551;51.056;9.466;2022-10-16T08:41:54;3.30;;;2.37;;
12972;SDS011;6551;51.056;9.466;2022-10-16T08:50:55;4.97;;;2.30;;
12972;SDS011;6551;51.056;9.466;2022-10-16T08:53:26;4.70;;;2.97;;
12972;SDS011;6551;51.056;9.466;2022-10-16T08:55:58;4.10;;;2.30;;
12972;SDS011;6551;51.056;9.466;2022-10-16T08:58:28;5.77;;;3.10;;
12972;SDS011;6551;51.056;9.466;2022-10-16T09:00:58;7.83;;;4.97;;
12972;SDS011;6551;51.056;9.466;2022-10-16T09:06:33;8.43;;;4.93;;
12972;SDS011;6551;51.056;9.466;2022-10-16T09:18:00;6.10;;;3.07;;
12972;SDS011;6551;51.056;9.466;2022-10-16T09:20:51;5.10;;;2.60;;
12972;SDS011;6551;51.056;9.466;2022-10-16T09:23:39;3.00;;;2.60;;
12972;SDS011;6551;51.056;9.466;2022-10-16T09:26:05;5.77;;;3.60;;
12972;SDS011;6551;51.056;9.466;2022-10-16T09:28:36;4.20;;;3.00;;
12972;SDS011;6551;51.056;9.466;2022-10-16T09:31:02;2.60;;;2.20;;
12972;SDS011;6551;51.056;9.466;2022-10-16T09:33:28;2.90;;;1.80;;
12972;SDS011;6551;51.056;9.466;2022-10-16T09:36:00;6.93;;;3.80;;
12972;SDS011;6551;51.056;9.466;2022-10-16T09:38:34;3.33;;;2.30;;
12972;SDS011;6551;51.056;9.466;2022-10-16T09:46:31;3.57;;;1.30;;
12972;SDS011;6551;51.056;9.466;2022-10-16T09:49:03;3.00;;;1.50;;
12972;SDS011;6551;51.056;9.466;2022-10-16T09:51:45;2.77;;;1.37;;
12972;SDS011;6551;51.056;9.466;2022-10-16T09:54:15;2.07;;;1.30;;
12972;SDS011;6551;51.056;9.466;2022-10-16T09:56:46;2.27;;;1.00;;
12972;SDS011;6551;51.056;9.466;2022-10-16T09:59:17;2.70;;;1.60;;
12972;SDS011;6551;51.056;9.466;2022-10-16T10:01:47;2.23;;;1.50;;
12972;SDS011;6551;51.056;9.466;2022-10-16T10:04:16;4.73;;;0.90;;
12972;SDS011;6551;51.056;9.466;2022-10-16T10:06:53;2.40;;;0.90;;
12972;SDS011;6551;51.056;9.466;2022-10-16T10:09:25;1.40;;;0.90;;
12972;SDS011;6551;51.056;9.466;2022-10-16T10:12:04;1.17;;;0.80;;
12972;SDS011;6551;51.056;9.466;2022-10-16T10:14:43;1.77;;;0.67;;
12972;SDS011;6551;51.056;9.466;2022-10-16T10:17:20;2.40;;;0.60;;
12972;SDS011;6551;51.056;9.466;2022-10-16T10:23:24;1.13;;;0.50;;
12972;SDS011;6551;51.056;9.466;2022-10-16T10:25:56;2.53;;;0.60;;
12972;SDS011;6551;51.056;9.466;2022-10-16T10:34:48;3.20;;;0.60;;
12972;SDS011;6551;51.056;9.466;2022-10-16T10:38:00;5.07;;;0.80;;
12972;SDS011;6551;51.056;9.466;2022-10-16T10:40:48;3.10;;;0.63;;
12972;SDS011;6551;51.056;9.466;2022-10-16T10:43:28;2.10;;;0.90;;
12972;SDS011;6551;51.056;9.466;2022-10-16T10:54:22;1.90;;;0.40;;
12972;SDS011;6551;51.056;9.466;2022-10-16T10:57:22;0.50;;;0.30;;
12972;SDS011;6551;51.056;9.466;2022-10-16T11:03:09;5.00;;;0.70;;
12972;SDS011;6551;51.056;9.466;2022-10-16T11:06:17;1.17;;;0.50;;
12972;SDS011;6551;51.056;9.466;2022-10-16T11:09:10;1.73;;;0.40;;
12972;SDS011;6551;51.056;9.466;2022-10-16T11:11:56;3.67;;;0.63;;
12972;SDS011;6551;51.056;9.466;2022-10-16T11:17:38;2.87;;;0.40;;
12972;SDS011;6551;51.056;9.466;2022-10-16T11:20:30;1.50;;;0.27;;
12972;SDS011;6551;51.056;9.466;2022-10-16T11:23:13;1.13;;;0.40;;
12972;SDS011;6551;51.056;9.466;2022-10-16T11:25:42;0.87;;;0.30;;
12972;SDS011;6551;51.056;9.466;2022-10-16T11:34:01;2.87;;;0.30;;
12972;SDS011;6551;51.056;9.466;2022-10-16T11:39:30;1.63;;;0.30;;
12972;SDS011;6551;51.056;9.466;2022-10-16T11:41:59;3.57;;;0.30;;
12972;SDS011;6551;51.056;9.466;2022-10-16T11:50:34;0.70;;;0.23;;
12972;SDS011;6551;51.056;9.466;2022-10-16T11:53:09;0.63;;;0.30;;
12972;SDS011;6551;51.056;9.466;2022-10-16T11:56:01;2.40;;;0.40;;
12972;SDS011;6551;51.056;9.466;2022-10-16T12:06:57;1.13;;;0.30;;
12972;SDS011;6551;51.056;9.466;2022-10-16T12:09:37;1.17;;;0.30;;
12972;SDS011;6551;51.056;9.466;2022-10-16T12:12:05;1.20;;;0.30;;
12972;SDS011;6551;51.056;9.466;2022-10-16T12:15:02;0.70;;;0.30;;
12972;SDS011;6551;51.056;9.466;2022-10-16T12:17:58;0.40;;;0.20;;
12972;SDS011;6551;51.056;9.466;2022-10-16T12:20:26;1.37;;;0.30;;
12972;SDS011;6551;51.056;9.466;2022-10-16T12:22:56;0.50;;;0.27;;
12972;SDS011;6551;51.056;9.466;2022-10-16T12:25:29;2.40;;;0.40;;
12972;SDS011;6551;51.056;9.466;2022-10-16T12:28:20;2.20;;;1.17;;
12972;SDS011;6551;51.056;9.466;2022-10-16T12:30:54;0.93;;;0.30;;
12972;SDS011;6551;51.056;9.466;2022-10-16T12:33:42;1.37;;;0.47;;
12972;SDS011;6551;51.056;9.466;2022-10-16T12:39:00;0.80;;;0.43;;
12972;SDS011;6551;51.056;9.466;2022-10-16T12:41:29;0.43;;;0.30;;
12972;SDS011;6551;51.056;9.466;2022-10-16T12:44:02;2.27;;;0.47;;
12972;SDS011;6551;51.056;9.466;2022-10-16T12:49:04;0.40;;;0.37;;
12972;SDS011;6551;51.056;9.466;2022-10-16T12:51:40;1.17;;;0.30;;
12972;SDS011;6551;51.056;9.466;2022-10-16T12:54:12;0.93;;;0.40;;
12972;SDS011;6551;51.056;9.466;2022-10-16T13:02:47;1.47;;;0.40;;
12972;SDS011;6551;51.056;9.466;2022-10-16T13:14:43;0.70;;;0.50;;
12972;SDS011;6551;51.056;9.466;2022-10-16T13:28:27;2.60;;;0.60;;
12972;SDS011;6551;51.056;9.466;2022-10-16T13:30:57;1.80;;;0.30;;
12972;SDS011;6551;51.056;9.466;2022-10-16T13:33:32;3.03;;;0.50;;
12972;SDS011;6551;51.056;9.466;2022-10-16T13:36:05;0.87;;;0.50;;
12972;SDS011;6551;51.056;9.466;2022-10-16T13:38:32;1.43;;;0.50;;
12972;SDS011;6551;51.056;9.466;2022-10-16T13:41:04;1.80;;;0.30;;
12972;SDS011;6551;51.056;9.466;2022-10-16T13:43:39;0.60;;;0.40;;
12972;SDS011;6551;51.056;9.466;2022-10-16T13:46:16;5.60;;;0.60;;
12972;SDS011;6551;51.056;9.466;2022-10-16T13:48:57;2.27;;;0.33;;
12972;SDS011;6551;51.056;9.466;2022-10-16T13:51:30;2.10;;;0.37;;
12972;SDS011;6551;51.056;9.466;2022-10-16T13:54:00;1.77;;;0.40;;
12972;SDS011;6551;51.056;9.466;2022-10-16T13:56:27;2.77;;;0.43;;
12972;SDS011;6551;51.056;9.466;2022-10-16T13:59:00;3.70;;;0.40;;
12972;SDS011;6551;51.056;9.466;2022-10-16T14:04:08;0.50;;;0.23;;
12972;SDS011;6551;51.056;9.466;2022-10-16T14:06:39;1.77;;;0.30;;
12972;SDS011;6551;51.056;9.466;2022-10-16T14:09:24;2.47;;;0.40;;
12972;SDS011;6551;51.056;9.466;2022-10-16T14:11:56;1.13;;;0.47;;
12972;SDS011;6551;51.056;9.466;2022-10-16T14:14:31;2.63;;;0.40;;
12972;SDS011;6551;51.056;9.466;2022-10-16T14:17:20;1.83;;;0.50;;
12972;SDS011;6551;51.056;9.466;2022-10-16T14:19:53;5.87;;;0.47;;
12972;SDS011;6551;51.056;9.466;2022-10-16T14:22:32;1.03;;;0.50;;
12972;SDS011;6551;51.056;9.466;2022-10-16T14:27:59;1.30;;;0.47;;
12972;SDS011;6551;51.056;9.466;2022-10-16T14:30:35;3.00;;;0.90;;
12972;SDS011;6551;51.056;9.466;2022-10-16T14:33:02;4.60;;;0.50;;
12972;SDS011;6551;51.056;9.466;2022-10-16T14:38:04;1.10;;;0.60;;
12972;SDS011;6551;51.056;9.466;2022-10-16T14:40:32;1.63;;;0.70;;
12972;SDS011;6551;51.056;9.466;2022-10-16T14:43:02;2.43;;;0.33;;
12972;SDS011;6551;51.056;9.466;2022-10-16T14:45:31;2.43;;;0.20;;
12972;SDS011;6551;51.056;9.466;2022-10-16T14:48:01;1.27;;;0.40;;
12972;SDS011;6551;51.056;9.466;2022-10-16T14:50:39;1.23;;;0.50;;
12972;SDS011;6551;51.056;9.466;2022-10-16T14:53:08;0.80;;;0.50;;
12972;SDS011;6551;51.056;9.466;2022-10-16T14:55:37;1.10;;;0.40;;
12972;SDS011;6551;51.056;9.466;2022-10-16T14:58:07;0.97;;;0.40;;
12972;SDS011;6551;51.056;9.466;2022-10-16T15:00:42;1.50;;;0.30;;
12972;SDS011;6551;51.056;9.466;2022-10-16T15:03:08;0.97;;;0.40;;
12972;SDS011;6551;51.056;9.466;2022-10-16T15:05:34;1.50;;;0.40;;
12972;SDS011;6551;51.056;9.466;2022-10-16T15:08:00;1.37;;;0.50;;
12972;SDS011;6551;51.056;9.466;2022-10-16T15:10:27;2.37;;;0.50;;
12972;SDS011;6551;51.056;9.466;2022-10-16T15:12:54;3.83;;;0.70;;
12972;SDS011;6551;51.056;9.466;2022-10-16T15:17:52;1.10;;;0.50;;
12972;SDS011;6551;51.056;9.466;2022-10-16T15:20:26;2.07;;;0.50;;
12972;SDS011;6551;51.056;9.466;2022-10-16T15:22:55;3.30;;;0.60;;
12972;SDS011;6551;51.056;9.466;2022-10-16T15:27:59;3.57;;;0.70;;
12972;SDS011;6551;51.056;9.466;2022-10-16T15:30:26;1.17;;;0.60;;
12972;SDS011;6551;51.056;9.466;2022-10-16T15:32:52;1.00;;;0.70;;
12972;SDS011;6551;51.056;9.466;2022-10-16T15:35:18;2.20;;;1.20;;
12972;SDS011;6551;51.056;9.466;2022-10-16T15:37:45;4.20;;;1.00;;
12972;SDS011;6551;51.056;9.466;2022-10-16T15:40:13;4.30;;;0.63;;
12972;SDS011;6551;51.056;9.466;2022-10-16T15:42:40;0.90;;;0.60;;
12972;SDS011;6551;51.056;9.466;2022-10-16T15:45:06;2.33;;;0.67;;
12972;SDS011;6551;51.056;9.466;2022-10-16T15:47:33;1.00;;;0.80;;
12972;SDS011;6551;51.056;9.466;2022-10-16T15:49:59;0.80;;;0.50;;
12972;SDS011;6551;51.056;9.466;2022-10-16T15:52:25;1.90;;;0.70;;
12972;SDS011;6551;51.056;9.466;2022-10-16T15:54:51;1.80;;;0.60;;
12972;SDS011;6551;51.056;9.466;2022-10-16T15:57:16;3.03;;;0.70;;
12972;SDS011;6551;51.056;9.466;2022-10-16T15:59:42;0.70;;;0.50;;
12972;SDS011;6551;51.056;9.466;2022-10-16T16:02:08;0.77;;;0.50;;
12972;SDS011;6551;51.056;9.466;2022-10-16T16:04:34;2.33;;;0.60;;
12972;SDS011;6551;51.056;9.466;2022-10-16T16:07:00;1.83;;;0.83;;
12972;SDS011;6551;51.056;9.466;2022-10-16T16:09:26;1.43;;;0.80;;
12972;SDS011;6551;51.056;9.466;2022-10-16T16:11:54;0.60;;;0.60;;
12972;SDS011;6551;51.056;9.466;2022-10-16T16:14:20;1.07;;;0.70;;
12972;SDS011;6551;51.056;9.466;2022-10-16T16:16:45;2.53;;;0.80;;
12972;SDS011;6551;51.056;9.466;2022-10-16T16:19:11;0.90;;;0.70;;
12972;SDS011;6551;51.056;9.466;2022-10-16T16:21:37;3.93;;;0.90;;
12972;SDS011;6551;51.056;9.466;2022-10-16T16:24:03;1.37;;;0.90;;
12972;SDS011;6551;51.056;9.466;2022-10-16T16:26:33;2.00;;;0.77;;
12972;SDS011;6551;51.056;9.466;2022-10-16T16:29:03;4.73;;;0.70;;
12972;SDS011;6551;51.056;9.466;2022-10-16T16:31:29;4.10;;;1.00;;
12972;SDS011;6551;51.056;9.466;2022-10-16T16:33:57;3.30;;;1.10;;
12972;SDS011;6551;51.056;9.466;2022-10-16T16:36:23;3.17;;;1.13;;
12972;SDS011;6551;51.056;9.466;2022-10-16T16:38:50;2.23;;;1.10;;
12972;SDS011;6551;51.056;9.466;2022-10-16T16:41:17;1.87;;;1.40;;
12972;SDS011;6551;51.056;9.466;2022-10-16T16:43:48;5.70;;;1.30;;
12972;SDS011;6551;51.056;9.466;2022-10-16T16:46:16;5.23;;;1.33;;
12972;SDS011;6551;51.056;9.466;2022-10-16T16:48:42;1.10;;;1.00;;
12972;SDS011;6551;51.056;9.466;2022-10-16T16:51:13;6.23;;;1.20;;
12972;SDS011;6551;51.056;9.466;2022-10-16T16:53:43;3.27;;;1.20;;
12972;SDS011;6551;51.056;9.466;2022-10-16T16:56:11;2.73;;;1.40;;
12972;SDS011;6551;51.056;9.466;2022-10-16T16:58:37;3.83;;;1.23;;
12972;SDS011;6551;51.056;9.466;2022-10-16T17:01:03;3.13;;;1.30;;
12972;SDS011;6551;51.056;9.466;2022-10-16T17:03:30;4.00;;;1.83;;
12972;SDS011;6551;51.056;9.466;2022-10-16T17:05:58;2.20;;;1.67;;
12972;SDS011;6551;51.056;9.466;2022-10-16T17:08:27;4.13;;;1.40;;
12972;SDS011;6551;51.056;9.466;2022-10-16T17:10:53;6.70;;;1.37;;
12972;SDS011;6551;51.056;9.466;2022-10-16T17:13:24;3.53;;;1.50;;
12972;SDS011;6551;51.056;9.466;2022-10-16T17:15:53;2.73;;;1.60;;
12972;SDS011;6551;51.056;9.466;2022-10-16T17:18:20;4.83;;;1.50;;
12972;SDS011;6551;51.056;9.466;2022-10-16T17:20:47;4.60;;;1.23;;
12972;SDS011;6551;51.056;9.466;2022-10-16T17:23:14;2.23;;;1.27;;
12972;SDS011;6551;51.056;9.466;2022-10-16T17:25:42;2.40;;;1.20;;
12972;SDS011;6551;51.056;9.466;2022-10-16T17:28:08;3.37;;;1.90;;
12972;SDS011;6551;51.056;9.466;2022-10-16T17:30:36;4.60;;;1.90;;
12972;SDS011;6551;51.056;9.466;2022-10-16T17:33:04;4.47;;;1.37;;